createdAt,value
2022-12-23T00:01:24.547Z,4.28
2022-12-23T00:03:54.203Z,7.78
2022-12-23T00:06:26.271Z,4.00
2022-12-23T00:08:58.882Z,8.23
2022-12-23T00:11:29.386Z,4.15
2022-12-23T00:14:18.204Z,3.42
2022-12-23T00:16:50.550Z,6.10
2022-12-23T00:19:20.328Z,5.53
2022-12-23T00:21:52.411Z,3.55
2022-12-23T00:24:22.006Z,6.60
2022-12-23T00:26:51.498Z,7.70
2022-12-23T00:29:20.970Z,3.53
2022-12-23T00:31:50.475Z,3.17
2022-12-23T00:34:20.079Z,3.33
2022-12-23T00:36:52.338Z,3.20
2022-12-23T00:39:34.285Z,8.05
2022-12-23T00:42:16.199Z,4.38
2022-12-23T00:44:45.764Z,5.55
2022-12-23T00:47:35.842Z,3.78
2022-12-23T00:50:02.801Z,4.88
2022-12-23T00:52:34.909Z,4.30
2022-12-23T00:55:04.440Z,6.38
2022-12-23T00:57:33.991Z,4.97
2022-12-23T01:00:03.489Z,4.53
2022-12-23T01:02:45.427Z,10.60
2022-12-23T01:05:36.414Z,3.97
2022-12-23T01:08:09.791Z,5.45
2022-12-23T01:10:39.667Z,5.05
2022-12-23T01:13:09.650Z,3.78
2022-12-23T01:15:39.091Z,2.42
2022-12-23T01:18:08.648Z,4.35
2022-12-23T01:20:40.380Z,4.28
2022-12-23T01:23:12.544Z,4.30
2022-12-23T01:25:42.103Z,4.65
2022-12-23T01:28:11.673Z,5.20
2022-12-23T01:30:41.145Z,5.05
2022-12-23T01:33:10.579Z,5.30
2022-12-23T01:35:40.038Z,3.58
2022-12-23T01:38:12.211Z,3.53
2022-12-23T01:40:42.931Z,6.80
2022-12-23T01:43:13.565Z,10.85
2022-12-23T01:45:43.079Z,3.78
2022-12-23T01:48:14.835Z,1.95
2022-12-23T01:50:47.176Z,2.15
2022-12-23T01:53:20.398Z,5.03
2022-12-23T01:55:52.328Z,4.20
2022-12-23T01:58:23.980Z,2.67
2022-12-23T02:01:06.088Z,2.30
2022-12-23T02:03:47.883Z,3.45
2022-12-23T02:06:31.797Z,1.60
2022-12-23T02:09:16.427Z,2.88
2022-12-23T02:11:53.155Z,2.25
2022-12-23T02:14:41.569Z,1.95
2022-12-23T02:17:13.163Z,2.92
2022-12-23T02:19:57.548Z,2.10
2022-12-23T02:22:36.405Z,2.40
2022-12-23T02:25:20.477Z,3.65
2022-12-23T02:27:56.149Z,4.63
2022-12-23T02:30:38.269Z,3.13
2022-12-23T02:33:20.977Z,3.80
2022-12-23T02:35:58.268Z,7.30
2022-12-23T02:38:30.534Z,5.88
2022-12-23T02:41:03.417Z,6.55
2022-12-23T02:43:38.635Z,5.53
2022-12-23T02:46:12.772Z,5.68
2022-12-23T02:48:44.644Z,5.93
2022-12-23T02:51:16.256Z,11.30
2022-12-23T02:53:48.651Z,7.28
2022-12-23T02:56:19.935Z,6.63
2022-12-23T02:58:51.999Z,5.93
2022-12-23T03:01:26.243Z,4.47
2022-12-23T03:03:55.848Z,5.80
2022-12-23T03:06:28.634Z,3.97
2022-12-23T03:08:59.161Z,4.35
2022-12-23T03:11:40.293Z,4.85
2022-12-23T03:14:22.567Z,3.45
2022-12-23T03:17:01.283Z,3.38
2022-12-23T03:19:34.235Z,6.18
2022-12-23T03:22:09.977Z,12.30
2022-12-23T03:24:43.613Z,7.78
2022-12-23T03:27:14.459Z,6.32
2022-12-23T03:29:46.714Z,5.55
2022-12-23T03:32:19.647Z,4.60
2022-12-23T03:34:50.780Z,3.95
2022-12-23T03:37:21.827Z,3.05
2022-12-23T03:39:55.451Z,3.47
2022-12-23T03:42:27.730Z,5.85
2022-12-23T03:45:36.455Z,6.05
2022-12-23T03:47:53.415Z,6.10
2022-12-23T03:50:24.914Z,4.95
2022-12-23T03:52:56.201Z,3.90
2022-12-23T03:55:29.281Z,6.50
2022-12-23T03:58:05.453Z,7.60
2022-12-23T04:00:38.359Z,2.28
2022-12-23T04:03:14.078Z,5.47
2022-12-23T04:05:44.687Z,4.68
2022-12-23T04:08:16.086Z,3.15
2022-12-23T04:10:45.597Z,4.43
2022-12-23T04:13:15.171Z,7.25
2022-12-23T04:15:45.170Z,3.13
2022-12-23T04:18:17.255Z,2.67
2022-12-23T04:20:46.775Z,6.57
2022-12-23T04:23:16.198Z,4.25
2022-12-23T04:25:45.719Z,3.13
2022-12-23T04:28:15.388Z,3.53
2022-12-23T04:30:44.908Z,4.90
2022-12-23T04:33:17.141Z,5.72
2022-12-23T04:35:46.734Z,4.55
2022-12-23T04:38:16.181Z,4.60
2022-12-23T04:40:48.119Z,3.72
2022-12-23T04:43:17.721Z,4.32
2022-12-23T04:45:47.219Z,8.18
2022-12-23T04:48:19.351Z,4.10
2022-12-23T04:50:48.948Z,5.65
2022-12-23T04:53:18.486Z,3.97
2022-12-23T04:55:52.207Z,7.05
2022-12-23T04:58:22.249Z,4.50
2022-12-23T05:00:51.798Z,3.97
2022-12-23T05:03:23.978Z,4.35
2022-12-23T05:05:53.577Z,4.10
2022-12-23T05:08:23.019Z,3.97
2022-12-23T05:10:52.608Z,3.78
2022-12-23T05:13:22.205Z,3.45
2022-12-23T05:15:52.604Z,3.53
2022-12-23T05:18:25.191Z,4.50
2022-12-23T05:20:54.781Z,3.88
2022-12-23T05:23:24.203Z,3.90
2022-12-23T05:25:54.713Z,3.75
2022-12-23T05:28:24.808Z,3.78
2022-12-23T05:31:00.505Z,4.10
2022-12-23T05:33:32.893Z,3.60
2022-12-23T05:36:02.766Z,3.78
2022-12-23T05:38:32.521Z,3.60
2022-12-23T05:41:02.016Z,3.70
2022-12-23T05:43:31.868Z,4.32
2022-12-23T05:46:01.460Z,4.10
2022-12-23T05:48:33.553Z,4.22
2022-12-23T05:51:03.159Z,5.00
2022-12-23T05:53:32.658Z,6.30
2022-12-23T05:56:02.260Z,5.00
2022-12-23T05:58:31.682Z,4.85
2022-12-23T06:01:01.213Z,4.47
2022-12-23T06:03:33.673Z,5.72
2022-12-23T06:06:03.383Z,3.53
2022-12-23T06:08:32.813Z,5.55
2022-12-23T06:11:02.578Z,4.45
2022-12-23T06:13:32.054Z,3.53
2022-12-23T06:16:01.604Z,3.67
2022-12-23T06:18:33.840Z,3.70
2022-12-23T06:21:03.334Z,3.47
2022-12-23T06:23:32.782Z,3.50
2022-12-23T06:26:02.750Z,5.53
2022-12-23T06:28:32.350Z,3.10
2022-12-23T06:31:01.806Z,3.70
2022-12-23T06:33:33.949Z,4.88
2022-12-23T06:36:03.460Z,3.55
2022-12-23T06:38:32.895Z,4.65
2022-12-23T06:41:02.495Z,4.82
2022-12-23T06:43:32.047Z,3.30
2022-12-23T06:46:01.552Z,2.88
2022-12-23T06:48:31.075Z,3.22
2022-12-23T06:51:03.195Z,2.67
2022-12-23T06:53:32.705Z,3.45
2022-12-23T06:56:02.540Z,3.75
2022-12-23T06:58:32.114Z,3.45
2022-12-23T07:01:01.676Z,3.38
2022-12-23T07:03:31.338Z,3.45
2022-12-23T07:06:03.642Z,3.20
2022-12-23T07:08:33.152Z,3.08
2022-12-23T07:11:03.438Z,4.68
2022-12-23T07:13:33.583Z,3.08
2022-12-23T07:16:07.963Z,3.38
2022-12-23T07:18:37.646Z,2.38
2022-12-23T07:21:19.730Z,4.03
2022-12-23T07:23:54.273Z,4.57
2022-12-23T07:26:23.805Z,4.93
2022-12-23T07:28:53.300Z,5.75
2022-12-23T07:31:22.793Z,4.32
2022-12-23T07:33:52.489Z,2.90
2022-12-23T07:36:24.561Z,3.10
2022-12-23T07:38:54.194Z,2.70
2022-12-23T07:41:23.734Z,2.92
2022-12-23T07:43:53.333Z,4.28
2022-12-23T07:46:22.977Z,10.40
2022-12-23T07:48:52.486Z,9.43
2022-12-23T07:51:24.574Z,6.65
2022-12-23T07:53:54.142Z,4.57
2022-12-23T07:56:23.626Z,3.80
2022-12-23T07:58:53.563Z,4.07
2022-12-23T08:01:23.404Z,4.40
2022-12-23T08:03:53.097Z,4.30
2022-12-23T08:06:25.328Z,3.58
2022-12-23T08:08:54.919Z,3.20
2022-12-23T08:11:24.629Z,3.17
2022-12-23T08:13:54.464Z,3.22
2022-12-23T08:16:23.977Z,2.88
2022-12-23T08:18:53.572Z,2.67
2022-12-23T08:21:25.730Z,3.10
2022-12-23T08:23:55.283Z,2.90
2022-12-23T08:26:25.959Z,2.13
2022-12-23T08:28:55.767Z,1.70
2022-12-23T08:31:26.846Z,1.77
2022-12-23T08:33:57.183Z,1.95
2022-12-23T08:36:31.148Z,3.97
2022-12-23T08:39:01.428Z,1.90
2022-12-23T08:41:31.945Z,2.25
2022-12-23T08:44:01.454Z,1.95
2022-12-23T08:46:31.454Z,2.38
2022-12-23T08:49:01.080Z,2.08
2022-12-23T08:51:33.170Z,2.53
2022-12-23T08:54:03.214Z,2.45
2022-12-23T08:56:33.358Z,2.63
2022-12-23T08:59:03.237Z,2.50
2022-12-23T09:01:33.730Z,2.25
2022-12-23T09:04:04.702Z,2.10
2022-12-23T09:06:38.782Z,4.68
2022-12-23T09:09:08.698Z,1.70
2022-12-23T09:11:38.323Z,1.88
2022-12-23T09:14:08.720Z,2.08
2022-12-23T09:16:38.607Z,2.75
2022-12-23T09:19:08.122Z,1.98
2022-12-23T09:21:40.155Z,1.52
2022-12-23T09:24:09.778Z,1.23
2022-12-23T09:26:39.246Z,1.40
2022-12-23T09:29:08.731Z,1.50
2022-12-23T09:31:38.327Z,1.58
2022-12-23T09:34:13.486Z,1.70
2022-12-23T09:36:54.860Z,1.77
2022-12-23T09:39:26.158Z,2.22
2022-12-23T09:42:01.669Z,1.05
2022-12-23T09:44:49.270Z,1.42
2022-12-23T09:47:20.801Z,1.63
2022-12-23T09:49:52.636Z,1.35
2022-12-23T09:52:26.894Z,1.55
2022-12-23T09:54:57.742Z,1.23
2022-12-23T09:57:31.876Z,2.30
2022-12-23T10:00:06.431Z,1.42
2022-12-23T10:02:45.536Z,1.65
2022-12-23T10:05:21.815Z,1.63
2022-12-23T10:07:55.709Z,1.55
2022-12-23T10:10:30.043Z,1.67
2022-12-23T10:13:01.076Z,3.13
2022-12-23T10:15:33.769Z,1.35
2022-12-23T10:18:05.355Z,1.27
2022-12-23T10:20:37.942Z,1.13
2022-12-23T10:23:14.165Z,1.73
2022-12-23T10:25:49.214Z,2.08
2022-12-23T10:28:18.680Z,1.60
2022-12-23T10:33:46.189Z,1.30
2022-12-23T10:36:17.709Z,1.27
2022-12-23T10:38:54.760Z,2.15
2022-12-23T10:41:31.263Z,3.05
2022-12-23T10:44:15.628Z,1.40
2022-12-23T10:46:50.598Z,1.75
2022-12-23T10:49:25.150Z,1.55
2022-12-23T10:51:56.170Z,1.10
2022-12-23T10:54:29.372Z,1.42
2022-12-23T10:56:58.914Z,1.63
2022-12-23T10:59:29.620Z,1.20
2022-12-23T11:02:02.204Z,1.30
2022-12-23T11:04:35.197Z,1.50
2022-12-23T11:07:41.983Z,1.55
2022-12-23T11:10:00.080Z,1.25
2022-12-23T11:12:42.257Z,2.30
2022-12-23T11:15:27.713Z,2.17
2022-12-23T11:18:01.810Z,2.05
2022-12-23T11:20:31.329Z,2.63
2022-12-23T11:23:02.281Z,2.22
2022-12-23T11:25:36.336Z,1.83
2022-12-23T11:28:07.790Z,1.35
2022-12-23T11:30:40.191Z,1.88
2022-12-23T11:33:20.185Z,1.60
2022-12-23T11:35:49.829Z,0.88
2022-12-23T11:38:19.357Z,0.90
2022-12-23T11:40:51.541Z,2.97
2022-12-23T11:43:22.710Z,2.30
2022-12-23T11:46:12.224Z,1.38
2022-12-23T11:48:41.827Z,1.50
2022-12-23T11:51:11.298Z,1.38
2022-12-23T11:53:45.445Z,2.00
2022-12-23T11:56:17.972Z,1.75
2022-12-23T11:58:49.495Z,1.63
2022-12-23T12:01:20.541Z,1.67
2022-12-23T12:03:51.297Z,1.17
2022-12-23T12:06:22.289Z,2.30
2022-12-23T12:08:53.528Z,5.78
2022-12-23T12:11:28.419Z,2.92
2022-12-23T12:14:00.603Z,3.45
2022-12-23T12:16:39.270Z,2.95
2022-12-23T12:19:13.498Z,1.67
2022-12-23T12:21:44.781Z,1.45
2022-12-23T12:24:19.299Z,2.00
2022-12-23T12:26:53.545Z,2.10
2022-12-23T12:29:25.501Z,2.47
2022-12-23T12:31:56.118Z,1.65
2022-12-23T12:34:36.842Z,1.63
2022-12-23T12:37:10.214Z,1.58
2022-12-23T12:39:43.936Z,1.50
2022-12-23T12:42:18.702Z,1.60
2022-12-23T12:44:56.884Z,1.92
2022-12-23T12:47:52.590Z,1.88
2022-12-23T12:50:21.136Z,1.25
2022-12-23T12:52:52.965Z,1.80
2022-12-23T12:55:24.068Z,1.80
2022-12-23T12:57:56.168Z,2.03
2022-12-23T13:00:26.480Z,3.10
2022-12-23T13:03:14.564Z,2.25
2022-12-23T13:06:00.481Z,2.25
2022-12-23T13:08:43.053Z,2.50
2022-12-23T13:11:14.254Z,2.35
2022-12-23T13:13:50.794Z,2.58
2022-12-23T13:16:25.583Z,2.83
2022-12-23T13:18:58.103Z,2.65
2022-12-23T13:21:32.462Z,3.25
2022-12-23T13:24:06.063Z,3.22
2022-12-23T13:26:39.207Z,2.60
2022-12-23T13:29:27.846Z,2.50
2022-12-23T13:32:00.290Z,2.70
2022-12-23T13:34:36.031Z,2.95
2022-12-23T13:37:09.882Z,2.92
2022-12-23T13:39:43.280Z,2.95
2022-12-23T13:42:15.382Z,3.10
2022-12-23T13:44:47.696Z,3.25
2022-12-23T13:47:18.873Z,4.45
2022-12-23T13:49:54.646Z,4.72
2022-12-23T13:52:27.561Z,3.90
2022-12-23T13:55:00.374Z,4.47
2022-12-23T13:57:34.828Z,3.00
2022-12-23T14:00:24.550Z,3.63
2022-12-23T14:03:07.465Z,2.20
2022-12-23T14:05:38.876Z,3.40
2022-12-23T14:08:09.809Z,2.65
2022-12-23T14:10:39.600Z,4.32
2022-12-23T14:13:10.204Z,4.10
2022-12-23T14:15:50.830Z,3.63
2022-12-23T14:18:29.548Z,3.72
2022-12-23T14:21:04.716Z,3.25
2022-12-23T14:23:41.209Z,2.85
2022-12-23T14:26:25.744Z,3.40
2022-12-23T14:29:08.086Z,3.63
2022-12-23T14:31:41.239Z,3.30
2022-12-23T14:34:28.214Z,2.92
2022-12-23T14:37:12.761Z,2.70
2022-12-23T14:39:45.441Z,2.67
2022-12-23T14:42:16.883Z,2.35
2022-12-23T14:44:50.066Z,2.63
2022-12-23T14:47:32.008Z,2.80
2022-12-23T14:50:35.134Z,6.20
2022-12-23T14:53:05.228Z,3.65
2022-12-23T14:55:50.355Z,3.60
2022-12-23T14:58:47.025Z,3.30
2022-12-23T15:01:18.890Z,3.38
2022-12-23T15:03:55.998Z,3.42
2022-12-23T15:06:32.279Z,3.10
2022-12-23T15:09:01.854Z,2.42
2022-12-23T15:11:35.956Z,2.35
2022-12-23T15:14:07.194Z,3.28
2022-12-23T15:16:37.564Z,3.40
2022-12-23T15:19:18.614Z,3.42
2022-12-23T15:21:55.645Z,2.63
2022-12-23T15:24:29.982Z,2.90
2022-12-23T15:29:53.254Z,3.78
2022-12-23T15:32:23.916Z,3.40
2022-12-23T15:34:53.958Z,8.65
2022-12-23T15:37:27.540Z,5.53
2022-12-23T15:40:06.182Z,5.50
2022-12-23T15:42:49.212Z,6.57
2022-12-23T15:45:29.925Z,4.60
2022-12-23T15:47:59.466Z,5.25
2022-12-23T15:50:30.008Z,4.85
2022-12-23T15:53:05.015Z,4.78
2022-12-23T15:55:35.586Z,4.55
2022-12-23T15:58:07.812Z,3.75
2022-12-23T16:00:41.131Z,7.20
2022-12-23T16:03:25.214Z,7.00
2022-12-23T16:05:55.097Z,6.78
2022-12-23T16:08:29.930Z,4.15
2022-12-23T16:11:06.218Z,3.78
2022-12-23T16:13:43.087Z,4.30
2022-12-23T16:16:31.865Z,4.18
2022-12-23T16:19:01.420Z,4.07
2022-12-23T16:21:32.283Z,4.25
2022-12-23T16:24:02.596Z,4.25
2022-12-23T16:26:32.095Z,4.70
2022-12-23T16:29:04.373Z,4.80
2022-12-23T16:31:34.019Z,4.32
2022-12-23T16:34:07.395Z,4.60
2022-12-23T16:36:38.694Z,3.30
2022-12-23T16:39:14.826Z,3.65
2022-12-23T16:41:44.359Z,3.35
2022-12-23T16:44:16.448Z,3.80
2022-12-23T16:46:47.230Z,4.13
2022-12-23T16:49:17.946Z,3.47
2022-12-23T16:51:47.695Z,3.47
2022-12-23T16:54:18.971Z,3.03
2022-12-23T16:56:50.016Z,3.22
2022-12-23T16:59:22.631Z,3.70
2022-12-23T17:01:53.698Z,3.60
2022-12-23T17:04:27.936Z,3.05
2022-12-23T17:06:57.443Z,3.15
2022-12-23T17:09:26.929Z,3.50
2022-12-23T17:11:56.472Z,3.17
2022-12-23T17:14:28.587Z,3.03
2022-12-23T17:16:58.566Z,3.25
2022-12-23T17:19:29.299Z,3.50
2022-12-23T17:22:02.379Z,4.03
2022-12-23T17:24:32.041Z,3.40
2022-12-23T17:27:01.559Z,3.38
2022-12-23T17:29:33.656Z,4.40
2022-12-23T17:32:03.183Z,4.00
2022-12-23T17:34:32.804Z,5.07
2022-12-23T17:37:02.532Z,4.93
2022-12-23T17:39:32.066Z,4.93
2022-12-23T17:42:01.545Z,5.50
2022-12-23T17:44:33.603Z,5.13
2022-12-23T17:47:03.310Z,5.47
2022-12-23T17:49:32.762Z,7.15
2022-12-23T17:52:02.244Z,6.93
2022-12-23T17:54:31.727Z,5.78
2022-12-23T17:57:01.184Z,5.85
2022-12-23T17:59:33.406Z,6.60
2022-12-23T18:02:02.996Z,6.47
2022-12-23T18:04:32.473Z,6.15
2022-12-23T18:07:01.994Z,6.18
2022-12-23T18:09:31.443Z,5.97
2022-12-23T18:12:00.886Z,5.68
2022-12-23T18:14:33.180Z,5.72
2022-12-23T18:17:03.061Z,7.20
2022-12-23T18:19:33.351Z,4.78
2022-12-23T18:22:03.065Z,4.78
2022-12-23T18:24:32.511Z,5.60
2022-12-23T18:27:01.956Z,5.95
2022-12-23T18:29:33.992Z,6.13
2022-12-23T18:32:03.532Z,3.80
2022-12-23T18:34:32.987Z,2.83
2022-12-23T18:37:02.458Z,2.22
2022-12-23T18:39:31.997Z,2.20
2022-12-23T18:42:01.575Z,3.20
2022-12-23T18:44:31.147Z,2.17
2022-12-23T18:47:03.253Z,2.10
2022-12-23T18:49:34.287Z,2.78
2022-12-23T18:52:04.118Z,2.25
2022-12-23T18:54:33.663Z,2.15
2022-12-23T18:57:03.135Z,1.60
2022-12-23T18:59:33.149Z,2.53
2022-12-23T19:02:05.321Z,1.38
2022-12-23T19:04:35.452Z,1.45
2022-12-23T19:07:05.068Z,1.35
2022-12-23T19:09:34.556Z,1.35
2022-12-23T19:12:04.988Z,0.70
2022-12-23T19:14:34.505Z,1.77
2022-12-23T19:17:06.580Z,0.95
2022-12-23T19:19:36.093Z,1.10
2022-12-23T19:22:05.540Z,3.50
2022-12-23T19:24:35.070Z,0.65
2022-12-23T19:27:04.529Z,0.85
2022-12-23T19:29:33.997Z,0.95
2022-12-23T19:32:06.147Z,0.90
2022-12-23T19:34:35.682Z,1.05
2022-12-23T19:37:05.189Z,1.60
2022-12-23T19:39:34.849Z,2.30
2022-12-23T19:42:04.405Z,2.25
2022-12-23T19:44:34.023Z,1.25
2022-12-23T19:47:06.630Z,0.80
2022-12-23T19:49:36.956Z,1.30
2022-12-23T19:52:06.749Z,1.25
2022-12-23T19:54:36.247Z,1.60
2022-12-23T19:57:05.760Z,1.50
2022-12-23T19:59:35.257Z,3.25
2022-12-23T20:02:07.535Z,1.35
2022-12-23T20:04:37.661Z,1.58
2022-12-23T20:07:07.120Z,1.20
2022-12-23T20:44:38.944Z,1.58
2022-12-23T20:47:08.934Z,1.65
2022-12-23T20:49:38.480Z,1.23
2022-12-23T20:52:08.042Z,1.63
2022-12-23T20:54:37.578Z,1.92
2022-12-23T20:57:07.553Z,2.35
2022-12-23T20:59:39.762Z,1.88
2022-12-23T21:02:09.460Z,2.50
2022-12-23T21:04:38.981Z,2.72
2022-12-23T21:07:08.532Z,2.72
2022-12-23T21:09:38.183Z,3.17
2022-12-23T21:12:07.843Z,1.90
2022-12-23T21:14:40.102Z,1.90
2022-12-23T21:17:09.722Z,5.53
2022-12-23T21:19:39.427Z,4.13
2022-12-23T21:22:08.920Z,4.60
2022-12-23T21:24:38.396Z,3.72
2022-12-23T21:27:07.985Z,2.72
2022-12-23T21:29:40.074Z,4.05
2022-12-23T21:32:09.677Z,2.13
2022-12-23T21:34:39.164Z,3.85
2022-12-23T21:37:08.730Z,4.70
2022-12-23T21:39:38.257Z,2.42
2022-12-23T21:42:07.996Z,2.38
2022-12-23T21:44:40.174Z,1.83
2022-12-23T21:47:09.759Z,1.90
2022-12-23T21:49:39.235Z,1.38
2022-12-23T21:52:08.751Z,1.85
2022-12-23T21:54:38.201Z,4.25
2022-12-23T21:57:07.791Z,1.83
2022-12-23T21:59:39.875Z,1.33
2022-12-23T22:02:09.494Z,2.95
2022-12-23T22:04:39.314Z,1.08
2022-12-23T22:07:08.871Z,1.90
2022-12-23T22:09:38.545Z,2.47
2022-12-23T22:12:08.235Z,1.85
2022-12-23T22:14:40.528Z,3.58
2022-12-23T22:17:10.099Z,3.22
2022-12-23T22:19:39.704Z,1.40
2022-12-23T22:22:09.162Z,2.58
2022-12-23T22:24:38.662Z,1.08
2022-12-23T22:27:08.185Z,2.58
2022-12-23T22:29:41.480Z,1.40
2022-12-23T22:32:11.099Z,1.95
2022-12-23T22:34:40.648Z,1.73
2022-12-23T22:37:10.157Z,1.40
2022-12-23T22:39:39.592Z,1.38
2022-12-23T22:42:09.056Z,1.83
2022-12-23T22:44:41.148Z,4.13
2022-12-23T22:47:10.731Z,0.85
2022-12-23T22:49:40.295Z,1.50
2022-12-23T22:52:09.881Z,4.40
2022-12-23T22:54:39.359Z,3.75
2022-12-23T22:57:10.104Z,1.48
2022-12-23T22:59:42.354Z,1.35
2022-12-23T23:02:11.988Z,1.15
2022-12-23T23:04:41.495Z,2.63
2022-12-23T23:07:10.990Z,0.80
2022-12-23T23:09:40.798Z,4.10
2022-12-23T23:12:10.495Z,0.90
2022-12-23T23:14:54.927Z,3.05
2022-12-23T23:17:25.089Z,1.35
2022-12-23T23:19:55.018Z,3.75
2022-12-23T23:22:25.453Z,2.15
2022-12-23T23:24:55.189Z,1.15
2022-12-23T23:27:24.632Z,2.30
2022-12-23T23:29:56.751Z,1.02
2022-12-23T23:32:26.321Z,2.10
2022-12-23T23:34:55.734Z,4.03
2022-12-23T23:37:25.298Z,0.82
2022-12-23T23:39:54.757Z,0.95
2022-12-23T23:42:24.276Z,1.30
2022-12-23T23:44:56.363Z,3.25
2022-12-23T23:47:26.104Z,4.88
2022-12-23T23:49:55.547Z,1.15
2022-12-23T23:52:25.302Z,2.10
2022-12-23T23:54:54.759Z,5.43
2022-12-23T23:57:26.374Z,2.08
2022-12-23T23:59:58.526Z,4.60
